sensor_id;sensor_type;location;lat;lon;timestamp;P1;durP1;ratioP1;P2;durP2;ratioP2
82920;SDS011;72696;52.372;9.722;2023-10-31T00:01:55;5.43;;;2.33;;
82920;SDS011;72696;52.372;9.722;2023-10-31T00:04:21;3.60;;;2.30;;
82920;SDS011;72696;52.372;9.722;2023-10-31T00:06:46;4.03;;;2.30;;
82920;SDS011;72696;52.372;9.722;2023-10-31T00:09:12;4.20;;;3.15;;
82920;SDS011;72696;52.372;9.722;2023-10-31T00:11:41;6.45;;;3.15;;
82920;SDS011;72696;52.372;9.722;2023-10-31T00:14:08;6.28;;;3.00;;
82920;SDS011;72696;52.372;9.722;2023-10-31T00:16:33;3.20;;;2.60;;
82920;SDS011;72696;52.372;9.722;2023-10-31T00:18:59;4.13;;;2.45;;
82920;SDS011;72696;52.372;9.722;2023-10-31T00:21:24;4.38;;;2.60;;
82920;SDS011;72696;52.372;9.722;2023-10-31T00:23:50;4.57;;;2.55;;
82920;SDS011;72696;52.372;9.722;2023-10-31T00:26:15;3.85;;;2.67;;
82920;SDS011;72696;52.372;9.722;2023-10-31T00:28:41;3.53;;;2.60;;
82920;SDS011;72696;52.372;9.722;2023-10-31T00:31:06;3.33;;;2.38;;
82920;SDS011;72696;52.372;9.722;2023-10-31T00:33:33;5.68;;;2.60;;
82920;SDS011;72696;52.372;9.722;2023-10-31T00:36:01;3.70;;;2.80;;
82920;SDS011;72696;52.372;9.722;2023-10-31T00:38:27;5.65;;;2.65;;
82920;SDS011;72696;52.372;9.722;2023-10-31T00:40:52;4.80;;;2.95;;
82920;SDS011;72696;52.372;9.722;2023-10-31T00:43:18;4.40;;;2.78;;
82920;SDS011;72696;52.372;9.722;2023-10-31T00:45:43;4.57;;;2.58;;
82920;SDS011;72696;52.372;9.722;2023-10-31T00:48:08;3.40;;;2.40;;
82920;SDS011;72696;52.372;9.722;2023-10-31T00:50:34;4.30;;;2.60;;
82920;SDS011;72696;52.372;9.722;2023-10-31T00:52:59;3.33;;;2.63;;
82920;SDS011;72696;52.372;9.722;2023-10-31T00:55:24;4.60;;;2.63;;
82920;SDS011;72696;52.372;9.722;2023-10-31T00:57:50;3.67;;;2.88;;
82920;SDS011;72696;52.372;9.722;2023-10-31T01:00:15;4.38;;;2.90;;
82920;SDS011;72696;52.372;9.722;2023-10-31T01:02:41;3.35;;;2.45;;
82920;SDS011;72696;52.372;9.722;2023-10-31T01:05:07;4.15;;;2.80;;
82920;SDS011;72696;52.372;9.722;2023-10-31T01:07:32;3.58;;;2.50;;
82920;SDS011;72696;52.372;9.722;2023-10-31T01:09:58;3.97;;;2.40;;
82920;SDS011;72696;52.372;9.722;2023-10-31T01:12:24;3.75;;;2.72;;
82920;SDS011;72696;52.372;9.722;2023-10-31T01:14:49;4.22;;;3.00;;
82920;SDS011;72696;52.372;9.722;2023-10-31T01:17:15;4.35;;;2.80;;
82920;SDS011;72696;52.372;9.722;2023-10-31T01:19:43;4.88;;;2.70;;
82920;SDS011;72696;52.372;9.722;2023-10-31T01:22:08;5.38;;;3.08;;
82920;SDS011;72696;52.372;9.722;2023-10-31T01:24:34;3.75;;;2.95;;
82920;SDS011;72696;52.372;9.722;2023-10-31T01:27:00;5.10;;;3.20;;
82920;SDS011;72696;52.372;9.722;2023-10-31T01:29:25;3.53;;;2.70;;
82920;SDS011;72696;52.372;9.722;2023-10-31T01:31:50;3.20;;;2.83;;
82920;SDS011;72696;52.372;9.722;2023-10-31T01:34:16;4.13;;;2.83;;
82920;SDS011;72696;52.372;9.722;2023-10-31T01:36:41;4.80;;;3.33;;
82920;SDS011;72696;52.372;9.722;2023-10-31T01:39:09;4.65;;;3.30;;
82920;SDS011;72696;52.372;9.722;2023-10-31T01:41:35;4.63;;;2.88;;
82920;SDS011;72696;52.372;9.722;2023-10-31T01:44:01;3.80;;;3.08;;
82920;SDS011;72696;52.372;9.722;2023-10-31T01:46:26;3.88;;;3.05;;
82920;SDS011;72696;52.372;9.722;2023-10-31T01:48:51;4.30;;;3.00;;
82920;SDS011;72696;52.372;9.722;2023-10-31T01:51:18;4.78;;;3.10;;
82920;SDS011;72696;52.372;9.722;2023-10-31T01:53:43;4.20;;;2.67;;
82920;SDS011;72696;52.372;9.722;2023-10-31T01:56:08;4.88;;;2.90;;
82920;SDS011;72696;52.372;9.722;2023-10-31T01:58:34;5.15;;;2.83;;
82920;SDS011;72696;52.372;9.722;2023-10-31T02:01:01;5.32;;;3.10;;
82920;SDS011;72696;52.372;9.722;2023-10-31T02:03:30;4.60;;;3.00;;
82920;SDS011;72696;52.372;9.722;2023-10-31T02:05:55;6.35;;;3.22;;
82920;SDS011;72696;52.372;9.722;2023-10-31T02:08:21;6.10;;;3.25;;
82920;SDS011;72696;52.372;9.722;2023-10-31T02:10:47;4.10;;;3.08;;
82920;SDS011;72696;52.372;9.722;2023-10-31T02:13:16;4.18;;;2.78;;
82920;SDS011;72696;52.372;9.722;2023-10-31T02:15:42;5.05;;;3.10;;
82920;SDS011;72696;52.372;9.722;2023-10-31T02:18:11;3.67;;;2.70;;
82920;SDS011;72696;52.372;9.722;2023-10-31T02:20:37;4.93;;;3.20;;
82920;SDS011;72696;52.372;9.722;2023-10-31T02:23:02;3.60;;;2.95;;
82920;SDS011;72696;52.372;9.722;2023-10-31T02:25:28;4.85;;;3.03;;
82920;SDS011;72696;52.372;9.722;2023-10-31T02:27:54;4.70;;;2.92;;
82920;SDS011;72696;52.372;9.722;2023-10-31T02:30:19;5.05;;;2.88;;
82920;SDS011;72696;52.372;9.722;2023-10-31T02:32:44;3.33;;;2.50;;
82920;SDS011;72696;52.372;9.722;2023-10-31T02:35:10;6.40;;;3.42;;
82920;SDS011;72696;52.372;9.722;2023-10-31T02:37:35;4.00;;;3.00;;
82920;SDS011;72696;52.372;9.722;2023-10-31T02:40:01;5.10;;;2.90;;
82920;SDS011;72696;52.372;9.722;2023-10-31T02:42:27;3.42;;;2.88;;
82920;SDS011;72696;52.372;9.722;2023-10-31T02:44:52;4.40;;;3.22;;
82920;SDS011;72696;52.372;9.722;2023-10-31T02:47:18;4.18;;;2.90;;
82920;SDS011;72696;52.372;9.722;2023-10-31T02:49:43;3.28;;;2.47;;
82920;SDS011;72696;52.372;9.722;2023-10-31T02:52:09;3.47;;;2.63;;
82920;SDS011;72696;52.372;9.722;2023-10-31T02:54:34;3.45;;;2.88;;
82920;SDS011;72696;52.372;9.722;2023-10-31T02:57:00;3.65;;;2.65;;
82920;SDS011;72696;52.372;9.722;2023-10-31T02:59:25;3.53;;;2.70;;
82920;SDS011;72696;52.372;9.722;2023-10-31T03:01:51;5.05;;;3.05;;
82920;SDS011;72696;52.372;9.722;2023-10-31T03:04:17;6.95;;;2.88;;
82920;SDS011;72696;52.372;9.722;2023-10-31T03:06:42;4.35;;;2.90;;
82920;SDS011;72696;52.372;9.722;2023-10-31T03:09:08;3.78;;;2.65;;
82920;SDS011;72696;52.372;9.722;2023-10-31T03:11:33;3.22;;;2.53;;
82920;SDS011;72696;52.372;9.722;2023-10-31T03:13:58;3.28;;;2.47;;
82920;SDS011;72696;52.372;9.722;2023-10-31T03:16:24;3.92;;;3.00;;
82920;SDS011;72696;52.372;9.722;2023-10-31T03:18:49;3.28;;;2.53;;
82920;SDS011;72696;52.372;9.722;2023-10-31T03:21:15;3.33;;;2.45;;
82920;SDS011;72696;52.372;9.722;2023-10-31T03:23:46;4.32;;;2.92;;
82920;SDS011;72696;52.372;9.722;2023-10-31T03:26:13;3.63;;;2.63;;
82920;SDS011;72696;52.372;9.722;2023-10-31T03:28:38;3.72;;;2.53;;
82920;SDS011;72696;52.372;9.722;2023-10-31T03:31:04;4.43;;;2.88;;
82920;SDS011;72696;52.372;9.722;2023-10-31T03:33:29;4.45;;;2.70;;
82920;SDS011;72696;52.372;9.722;2023-10-31T03:35:54;4.35;;;2.75;;
82920;SDS011;72696;52.372;9.722;2023-10-31T03:38:20;4.88;;;2.72;;
82920;SDS011;72696;52.372;9.722;2023-10-31T03:40:45;3.60;;;2.63;;
82920;SDS011;72696;52.372;9.722;2023-10-31T03:43:10;5.45;;;2.90;;
82920;SDS011;72696;52.372;9.722;2023-10-31T03:45:36;3.42;;;2.88;;
82920;SDS011;72696;52.372;9.722;2023-10-31T03:48:01;4.30;;;3.15;;
82920;SDS011;72696;52.372;9.722;2023-10-31T03:50:27;5.35;;;4.63;;
82920;SDS011;72696;52.372;9.722;2023-10-31T03:52:54;4.28;;;3.30;;
82920;SDS011;72696;52.372;9.722;2023-10-31T03:55:19;3.92;;;3.33;;
82920;SDS011;72696;52.372;9.722;2023-10-31T03:57:44;4.80;;;3.63;;
82920;SDS011;72696;52.372;9.722;2023-10-31T04:00:10;4.85;;;3.72;;
82920;SDS011;72696;52.372;9.722;2023-10-31T04:02:36;4.30;;;3.15;;
82920;SDS011;72696;52.372;9.722;2023-10-31T04:05:02;3.63;;;3.20;;
82920;SDS011;72696;52.372;9.722;2023-10-31T04:07:28;4.57;;;3.20;;
82920;SDS011;72696;52.372;9.722;2023-10-31T04:09:53;3.58;;;2.88;;
82920;SDS011;72696;52.372;9.722;2023-10-31T04:12:19;4.03;;;2.90;;
82920;SDS011;72696;52.372;9.722;2023-10-31T04:14:45;3.95;;;3.00;;
82920;SDS011;72696;52.372;9.722;2023-10-31T04:17:10;4.47;;;3.10;;
82920;SDS011;72696;52.372;9.722;2023-10-31T04:19:36;4.20;;;2.85;;
82920;SDS011;72696;52.372;9.722;2023-10-31T04:22:01;3.53;;;2.47;;
82920;SDS011;72696;52.372;9.722;2023-10-31T04:24:27;2.70;;;2.20;;
82920;SDS011;72696;52.372;9.722;2023-10-31T04:26:52;6.97;;;2.72;;
82920;SDS011;72696;52.372;9.722;2023-10-31T04:29:18;5.57;;;3.13;;
82920;SDS011;72696;52.372;9.722;2023-10-31T04:31:43;2.75;;;2.08;;
82920;SDS011;72696;52.372;9.722;2023-10-31T04:34:08;2.40;;;1.90;;
82920;SDS011;72696;52.372;9.722;2023-10-31T04:36:34;3.85;;;2.50;;
82920;SDS011;72696;52.372;9.722;2023-10-31T04:38:59;2.63;;;2.03;;
82920;SDS011;72696;52.372;9.722;2023-10-31T04:41:24;2.80;;;1.83;;
82920;SDS011;72696;52.372;9.722;2023-10-31T04:43:50;3.03;;;1.60;;
82920;SDS011;72696;52.372;9.722;2023-10-31T04:46:15;4.57;;;2.38;;
82920;SDS011;72696;52.372;9.722;2023-10-31T04:48:41;3.53;;;1.83;;
82920;SDS011;72696;52.372;9.722;2023-10-31T04:51:07;2.25;;;1.70;;
82920;SDS011;72696;52.372;9.722;2023-10-31T04:53:32;3.00;;;1.50;;
82920;SDS011;72696;52.372;9.722;2023-10-31T04:55:59;2.17;;;1.20;;
82920;SDS011;72696;52.372;9.722;2023-10-31T04:58:24;2.08;;;1.77;;
82920;SDS011;72696;52.372;9.722;2023-10-31T05:00:50;2.67;;;1.40;;
82920;SDS011;72696;52.372;9.722;2023-10-31T05:03:15;4.38;;;2.00;;
82920;SDS011;72696;52.372;9.722;2023-10-31T05:05:41;4.30;;;1.23;;
82920;SDS011;72696;52.372;9.722;2023-10-31T05:08:06;2.95;;;1.40;;
82920;SDS011;72696;52.372;9.722;2023-10-31T05:10:31;1.67;;;1.25;;
82920;SDS011;72696;52.372;9.722;2023-10-31T05:12:57;1.23;;;1.13;;
82920;SDS011;72696;52.372;9.722;2023-10-31T05:15:22;3.95;;;1.48;;
82920;SDS011;72696;52.372;9.722;2023-10-31T05:17:47;1.52;;;1.00;;
82920;SDS011;72696;52.372;9.722;2023-10-31T05:20:13;1.20;;;0.77;;
82920;SDS011;72696;52.372;9.722;2023-10-31T05:22:39;1.98;;;1.10;;
82920;SDS011;72696;52.372;9.722;2023-10-31T05:25:05;1.48;;;0.95;;
82920;SDS011;72696;52.372;9.722;2023-10-31T05:27:31;1.67;;;0.85;;
82920;SDS011;72696;52.372;9.722;2023-10-31T05:29:56;1.98;;;1.13;;
82920;SDS011;72696;52.372;9.722;2023-10-31T05:32:22;0.63;;;0.60;;
82920;SDS011;72696;52.372;9.722;2023-10-31T05:34:47;3.50;;;1.10;;
82920;SDS011;72696;52.372;9.722;2023-10-31T05:37:12;2.20;;;1.50;;
82920;SDS011;72696;52.372;9.722;2023-10-31T05:39:38;1.90;;;1.15;;
82920;SDS011;72696;52.372;9.722;2023-10-31T05:42:03;2.67;;;1.48;;
82920;SDS011;72696;52.372;9.722;2023-10-31T05:44:29;2.03;;;1.40;;
82920;SDS011;72696;52.372;9.722;2023-10-31T05:46:54;1.40;;;0.95;;
82920;SDS011;72696;52.372;9.722;2023-10-31T05:49:20;1.75;;;1.40;;
82920;SDS011;72696;52.372;9.722;2023-10-31T05:51:54;2.65;;;1.70;;
82920;SDS011;72696;52.372;9.722;2023-10-31T05:54:19;1.67;;;1.20;;
82920;SDS011;72696;52.372;9.722;2023-10-31T05:56:45;2.85;;;1.58;;
82920;SDS011;72696;52.372;9.722;2023-10-31T05:59:11;2.08;;;1.55;;
82920;SDS011;72696;52.372;9.722;2023-10-31T06:01:36;3.20;;;1.33;;
82920;SDS011;72696;52.372;9.722;2023-10-31T06:04:02;3.90;;;1.83;;
82920;SDS011;72696;52.372;9.722;2023-10-31T06:06:27;2.03;;;1.40;;
82920;SDS011;72696;52.372;9.722;2023-10-31T06:08:54;1.98;;;1.42;;
82920;SDS011;72696;52.372;9.722;2023-10-31T06:11:19;2.38;;;1.50;;
82920;SDS011;72696;52.372;9.722;2023-10-31T06:13:45;1.98;;;1.50;;
82920;SDS011;72696;52.372;9.722;2023-10-31T06:16:12;3.80;;;1.85;;
82920;SDS011;72696;52.372;9.722;2023-10-31T06:18:38;3.60;;;2.13;;
82920;SDS011;72696;52.372;9.722;2023-10-31T06:21:05;3.08;;;1.70;;
82920;SDS011;72696;52.372;9.722;2023-10-31T06:23:30;2.95;;;1.80;;
82920;SDS011;72696;52.372;9.722;2023-10-31T06:25:55;2.05;;;1.60;;
82920;SDS011;72696;52.372;9.722;2023-10-31T06:28:21;2.00;;;1.63;;
82920;SDS011;72696;52.372;9.722;2023-10-31T06:30:46;4.65;;;2.10;;
82920;SDS011;72696;52.372;9.722;2023-10-31T06:33:11;3.13;;;1.98;;
82920;SDS011;72696;52.372;9.722;2023-10-31T06:35:37;4.65;;;2.10;;
82920;SDS011;72696;52.372;9.722;2023-10-31T06:38:02;4.72;;;2.20;;
82920;SDS011;72696;52.372;9.722;2023-10-31T06:40:28;4.55;;;2.20;;
82920;SDS011;72696;52.372;9.722;2023-10-31T06:42:53;3.22;;;2.20;;
82920;SDS011;72696;52.372;9.722;2023-10-31T06:45:18;3.38;;;2.28;;
82920;SDS011;72696;52.372;9.722;2023-10-31T06:47:44;2.95;;;2.08;;
82920;SDS011;72696;52.372;9.722;2023-10-31T06:50:09;4.35;;;2.00;;
82920;SDS011;72696;52.372;9.722;2023-10-31T06:52:35;4.90;;;2.72;;
82920;SDS011;72696;52.372;9.722;2023-10-31T06:55:00;4.85;;;2.30;;
82920;SDS011;72696;52.372;9.722;2023-10-31T06:57:26;2.75;;;1.90;;
82920;SDS011;72696;52.372;9.722;2023-10-31T06:59:51;4.85;;;2.50;;
82920;SDS011;72696;52.372;9.722;2023-10-31T07:02:17;3.20;;;2.00;;
82920;SDS011;72696;52.372;9.722;2023-10-31T07:04:42;2.97;;;2.17;;
82920;SDS011;72696;52.372;9.722;2023-10-31T07:07:07;3.60;;;2.70;;
82920;SDS011;72696;52.372;9.722;2023-10-31T07:09:33;3.22;;;2.20;;
82920;SDS011;72696;52.372;9.722;2023-10-31T07:11:58;4.95;;;2.10;;
82920;SDS011;72696;52.372;9.722;2023-10-31T07:14:24;5.32;;;2.50;;
82920;SDS011;72696;52.372;9.722;2023-10-31T07:16:49;2.38;;;1.90;;
82920;SDS011;72696;52.372;9.722;2023-10-31T07:19:14;3.72;;;2.13;;
82920;SDS011;72696;52.372;9.722;2023-10-31T07:21:40;5.50;;;2.20;;
82920;SDS011;72696;52.372;9.722;2023-10-31T07:24:05;2.50;;;1.70;;
82920;SDS011;72696;52.372;9.722;2023-10-31T07:26:33;2.90;;;1.83;;
82920;SDS011;72696;52.372;9.722;2023-10-31T07:28:59;3.08;;;1.83;;
82920;SDS011;72696;52.372;9.722;2023-10-31T07:31:24;5.13;;;1.90;;
82920;SDS011;72696;52.372;9.722;2023-10-31T07:33:50;3.30;;;2.17;;
82920;SDS011;72696;52.372;9.722;2023-10-31T07:36:15;4.60;;;2.65;;
82920;SDS011;72696;52.372;9.722;2023-10-31T07:38:40;2.70;;;2.00;;
82920;SDS011;72696;52.372;9.722;2023-10-31T07:41:06;3.47;;;1.92;;
82920;SDS011;72696;52.372;9.722;2023-10-31T07:43:31;4.35;;;2.25;;
82920;SDS011;72696;52.372;9.722;2023-10-31T07:45:57;5.53;;;2.63;;
82920;SDS011;72696;52.372;9.722;2023-10-31T07:48:22;3.08;;;1.98;;
82920;SDS011;72696;52.372;9.722;2023-10-31T07:50:47;5.03;;;2.88;;
82920;SDS011;72696;52.372;9.722;2023-10-31T07:53:13;3.50;;;1.95;;
82920;SDS011;72696;52.372;9.722;2023-10-31T07:55:38;2.30;;;2.05;;
82920;SDS011;72696;52.372;9.722;2023-10-31T07:58:03;3.53;;;2.10;;
82920;SDS011;72696;52.372;9.722;2023-10-31T08:00:29;3.45;;;2.08;;
82920;SDS011;72696;52.372;9.722;2023-10-31T08:02:55;3.40;;;2.40;;
82920;SDS011;72696;52.372;9.722;2023-10-31T08:05:21;5.22;;;2.00;;
82920;SDS011;72696;52.372;9.722;2023-10-31T08:07:46;5.63;;;2.85;;
82920;SDS011;72696;52.372;9.722;2023-10-31T08:10:11;3.78;;;2.22;;
82920;SDS011;72696;52.372;9.722;2023-10-31T08:12:37;5.30;;;2.15;;
82920;SDS011;72696;52.372;9.722;2023-10-31T08:15:03;4.75;;;2.25;;
82920;SDS011;72696;52.372;9.722;2023-10-31T08:17:29;4.00;;;2.22;;
82920;SDS011;72696;52.372;9.722;2023-10-31T08:19:54;5.82;;;2.53;;
82920;SDS011;72696;52.372;9.722;2023-10-31T08:22:20;2.72;;;1.85;;
82920;SDS011;72696;52.372;9.722;2023-10-31T08:24:45;6.35;;;2.35;;
82920;SDS011;72696;52.372;9.722;2023-10-31T08:27:10;3.35;;;2.20;;
82920;SDS011;72696;52.372;9.722;2023-10-31T08:29:37;2.67;;;1.90;;
82920;SDS011;72696;52.372;9.722;2023-10-31T08:32:03;2.80;;;1.98;;
82920;SDS011;72696;52.372;9.722;2023-10-31T08:34:28;3.38;;;2.00;;
82920;SDS011;72696;52.372;9.722;2023-10-31T08:36:54;4.32;;;2.10;;
82920;SDS011;72696;52.372;9.722;2023-10-31T08:39:21;3.58;;;1.90;;
82920;SDS011;72696;52.372;9.722;2023-10-31T08:42:04;1.90;;;1.70;;
82920;SDS011;72696;52.372;9.722;2023-10-31T08:44:30;2.75;;;1.80;;
82920;SDS011;72696;52.372;9.722;2023-10-31T08:46:58;4.43;;;1.88;;
82920;SDS011;72696;52.372;9.722;2023-10-31T08:49:23;2.55;;;1.88;;
82920;SDS011;72696;52.372;9.722;2023-10-31T08:51:49;2.25;;;1.73;;
82920;SDS011;72696;52.372;9.722;2023-10-31T08:54:14;2.92;;;1.95;;
82920;SDS011;72696;52.372;9.722;2023-10-31T08:56:39;2.92;;;2.00;;
82920;SDS011;72696;52.372;9.722;2023-10-31T08:59:05;4.07;;;1.80;;
82920;SDS011;72696;52.372;9.722;2023-10-31T09:01:30;2.25;;;1.58;;
82920;SDS011;72696;52.372;9.722;2023-10-31T09:03:55;1.80;;;1.50;;
82920;SDS011;72696;52.372;9.722;2023-10-31T09:06:23;1.92;;;1.58;;
82920;SDS011;72696;52.372;9.722;2023-10-31T09:08:48;4.20;;;2.10;;
82920;SDS011;72696;52.372;9.722;2023-10-31T09:11:15;4.47;;;1.60;;
82920;SDS011;72696;52.372;9.722;2023-10-31T09:13:40;2.75;;;2.00;;
82920;SDS011;72696;52.372;9.722;2023-10-31T09:16:05;1.92;;;1.50;;
82920;SDS011;72696;52.372;9.722;2023-10-31T09:18:31;2.72;;;1.80;;
82920;SDS011;72696;52.372;9.722;2023-10-31T09:20:56;2.05;;;1.80;;
82920;SDS011;72696;52.372;9.722;2023-10-31T09:23:22;3.20;;;1.85;;
82920;SDS011;72696;52.372;9.722;2023-10-31T09:25:48;1.80;;;1.60;;
82920;SDS011;72696;52.372;9.722;2023-10-31T09:28:13;3.25;;;1.80;;
82920;SDS011;72696;52.372;9.722;2023-10-31T09:30:38;1.75;;;1.45;;
82920;SDS011;72696;52.372;9.722;2023-10-31T09:33:04;2.58;;;1.58;;
82920;SDS011;72696;52.372;9.722;2023-10-31T09:35:29;1.75;;;1.55;;
82920;SDS011;72696;52.372;9.722;2023-10-31T09:37:55;1.38;;;1.20;;
82920;SDS011;72696;52.372;9.722;2023-10-31T09:40:20;1.88;;;1.60;;
82920;SDS011;72696;52.372;9.722;2023-10-31T09:42:46;2.72;;;1.40;;
82920;SDS011;72696;52.372;9.722;2023-10-31T09:45:12;1.98;;;1.40;;
82920;SDS011;72696;52.372;9.722;2023-10-31T09:47:38;1.92;;;1.25;;
82920;SDS011;72696;52.372;9.722;2023-10-31T09:50:04;1.40;;;1.30;;
82920;SDS011;72696;52.372;9.722;2023-10-31T09:52:29;1.63;;;1.42;;
82920;SDS011;72696;52.372;9.722;2023-10-31T09:54:55;1.20;;;1.10;;
82920;SDS011;72696;52.372;9.722;2023-10-31T09:57:21;1.20;;;1.08;;
82920;SDS011;72696;52.372;9.722;2023-10-31T09:59:46;1.48;;;1.05;;
82920;SDS011;72696;52.372;9.722;2023-10-31T10:02:12;1.60;;;1.35;;
82920;SDS011;72696;52.372;9.722;2023-10-31T10:04:37;1.48;;;1.23;;
82920;SDS011;72696;52.372;9.722;2023-10-31T10:07:03;2.28;;;1.40;;
82920;SDS011;72696;52.372;9.722;2023-10-31T10:09:29;1.40;;;1.27;;
82920;SDS011;72696;52.372;9.722;2023-10-31T10:11:58;0.85;;;0.82;;
82920;SDS011;72696;52.372;9.722;2023-10-31T10:14:24;2.28;;;1.10;;
82920;SDS011;72696;52.372;9.722;2023-10-31T10:16:49;3.03;;;1.30;;
82920;SDS011;72696;52.372;9.722;2023-10-31T10:19:21;1.65;;;1.30;;
82920;SDS011;72696;52.372;9.722;2023-10-31T10:21:51;1.00;;;1.00;;
82920;SDS011;72696;52.372;9.722;2023-10-31T10:24:18;2.53;;;1.25;;
82920;SDS011;72696;52.372;9.722;2023-10-31T10:26:46;1.65;;;1.17;;
82920;SDS011;72696;52.372;9.722;2023-10-31T10:29:12;0.98;;;0.95;;
82920;SDS011;72696;52.372;9.722;2023-10-31T10:31:38;1.08;;;0.98;;
82920;SDS011;72696;52.372;9.722;2023-10-31T10:34:04;1.15;;;1.05;;
82920;SDS011;72696;52.372;9.722;2023-10-31T10:36:31;1.42;;;0.98;;
82920;SDS011;72696;52.372;9.722;2023-10-31T10:38:58;2.55;;;1.45;;
82920;SDS011;72696;52.372;9.722;2023-10-31T10:41:27;1.50;;;0.93;;
82920;SDS011;72696;52.372;9.722;2023-10-31T10:44:04;3.35;;;1.40;;
82920;SDS011;72696;52.372;9.722;2023-10-31T10:46:34;1.30;;;1.20;;
82920;SDS011;72696;52.372;9.722;2023-10-31T10:49:03;1.33;;;1.23;;
82920;SDS011;72696;52.372;9.722;2023-10-31T10:54:08;1.80;;;1.10;;
82920;SDS011;72696;52.372;9.722;2023-10-31T10:56:38;1.23;;;1.13;;
82920;SDS011;72696;52.372;9.722;2023-10-31T10:59:08;1.38;;;1.13;;
82920;SDS011;72696;52.372;9.722;2023-10-31T11:01:40;2.58;;;1.10;;
82920;SDS011;72696;52.372;9.722;2023-10-31T11:04:06;2.20;;;1.10;;
82920;SDS011;72696;52.372;9.722;2023-10-31T11:06:32;1.30;;;1.20;;
82920;SDS011;72696;52.372;9.722;2023-10-31T11:09:00;1.75;;;1.20;;
82920;SDS011;72696;52.372;9.722;2023-10-31T11:11:25;1.65;;;1.55;;
82920;SDS011;72696;52.372;9.722;2023-10-31T11:13:51;1.50;;;1.40;;
82920;SDS011;72696;52.372;9.722;2023-10-31T11:16:24;1.50;;;1.40;;
82920;SDS011;72696;52.372;9.722;2023-10-31T11:18:55;1.88;;;1.30;;
82920;SDS011;72696;52.372;9.722;2023-10-31T11:21:22;2.15;;;1.30;;
82920;SDS011;72696;52.372;9.722;2023-10-31T11:23:56;3.63;;;1.70;;
82920;SDS011;72696;52.372;9.722;2023-10-31T11:26:25;3.45;;;1.52;;
82920;SDS011;72696;52.372;9.722;2023-10-31T11:28:51;2.42;;;1.30;;
82920;SDS011;72696;52.372;9.722;2023-10-31T11:31:16;1.42;;;1.25;;
82920;SDS011;72696;52.372;9.722;2023-10-31T11:33:41;1.73;;;1.40;;
82920;SDS011;72696;52.372;9.722;2023-10-31T11:36:08;1.75;;;1.40;;
82920;SDS011;72696;52.372;9.722;2023-10-31T11:38:36;2.70;;;1.80;;
82920;SDS011;72696;52.372;9.722;2023-10-31T11:41:02;1.75;;;1.52;;
82920;SDS011;72696;52.372;9.722;2023-10-31T11:43:36;1.55;;;1.45;;
82920;SDS011;72696;52.372;9.722;2023-10-31T11:46:19;2.72;;;1.50;;
82920;SDS011;72696;52.372;9.722;2023-10-31T11:51:12;2.28;;;1.52;;
82920;SDS011;72696;52.372;9.722;2023-10-31T11:53:38;1.98;;;1.55;;
82920;SDS011;72696;52.372;9.722;2023-10-31T11:56:04;1.63;;;1.25;;
82920;SDS011;72696;52.372;9.722;2023-10-31T11:58:29;2.75;;;1.70;;
82920;SDS011;72696;52.372;9.722;2023-10-31T12:01:02;2.67;;;1.70;;
82920;SDS011;72696;52.372;9.722;2023-10-31T12:03:41;1.63;;;1.40;;
82920;SDS011;72696;52.372;9.722;2023-10-31T12:06:08;1.98;;;1.50;;
82920;SDS011;72696;52.372;9.722;2023-10-31T12:08:41;1.50;;;1.40;;
82920;SDS011;72696;52.372;9.722;2023-10-31T12:13:39;1.77;;;1.42;;
82920;SDS011;72696;52.372;9.722;2023-10-31T12:16:06;3.53;;;1.60;;
82920;SDS011;72696;52.372;9.722;2023-10-31T12:18:35;2.53;;;1.73;;
82920;SDS011;72696;52.372;9.722;2023-10-31T12:21:01;3.13;;;1.80;;
82920;SDS011;72696;52.372;9.722;2023-10-31T12:23:27;2.88;;;1.45;;
82920;SDS011;72696;52.372;9.722;2023-10-31T12:25:54;2.28;;;1.45;;
82920;SDS011;72696;52.372;9.722;2023-10-31T12:28:20;2.58;;;1.77;;
82920;SDS011;72696;52.372;9.722;2023-10-31T12:30:46;1.90;;;1.40;;
82920;SDS011;72696;52.372;9.722;2023-10-31T12:33:16;2.15;;;1.67;;
82920;SDS011;72696;52.372;9.722;2023-10-31T12:35:42;3.63;;;1.90;;
82920;SDS011;72696;52.372;9.722;2023-10-31T12:38:11;2.15;;;1.90;;
82920;SDS011;72696;52.372;9.722;2023-10-31T12:40:37;2.45;;;1.77;;
82920;SDS011;72696;52.372;9.722;2023-10-31T12:43:03;2.70;;;1.70;;
82920;SDS011;72696;52.372;9.722;2023-10-31T12:45:28;3.53;;;2.20;;
82920;SDS011;72696;52.372;9.722;2023-10-31T12:48:01;3.42;;;1.80;;
82920;SDS011;72696;52.372;9.722;2023-10-31T12:50:34;2.80;;;1.67;;
82920;SDS011;72696;52.372;9.722;2023-10-31T12:53:03;2.92;;;1.70;;
82920;SDS011;72696;52.372;9.722;2023-10-31T12:55:29;2.30;;;1.90;;
82920;SDS011;72696;52.372;9.722;2023-10-31T12:57:55;2.58;;;2.03;;
82920;SDS011;72696;52.372;9.722;2023-10-31T13:00:22;4.03;;;2.10;;
82920;SDS011;72696;52.372;9.722;2023-10-31T13:02:58;3.60;;;1.90;;
82920;SDS011;72696;52.372;9.722;2023-10-31T13:05:25;3.90;;;1.95;;
82920;SDS011;72696;52.372;9.722;2023-10-31T13:07:52;3.47;;;2.10;;
82920;SDS011;72696;52.372;9.722;2023-10-31T13:10:19;2.65;;;2.00;;
82920;SDS011;72696;52.372;9.722;2023-10-31T13:12:45;4.18;;;2.30;;
82920;SDS011;72696;52.372;9.722;2023-10-31T13:15:14;3.90;;;2.20;;
82920;SDS011;72696;52.372;9.722;2023-10-31T13:17:43;5.38;;;2.53;;
82920;SDS011;72696;52.372;9.722;2023-10-31T13:20:09;3.10;;;2.22;;
82920;SDS011;72696;52.372;9.722;2023-10-31T13:22:36;3.28;;;2.30;;
82920;SDS011;72696;52.372;9.722;2023-10-31T13:25:02;3.05;;;2.40;;
82920;SDS011;72696;52.372;9.722;2023-10-31T13:27:32;3.60;;;2.30;;
82920;SDS011;72696;52.372;9.722;2023-10-31T13:30:02;4.30;;;2.55;;
82920;SDS011;72696;52.372;9.722;2023-10-31T13:32:28;4.80;;;2.72;;
82920;SDS011;72696;52.372;9.722;2023-10-31T13:34:53;3.70;;;2.97;;
82920;SDS011;72696;52.372;9.722;2023-10-31T13:37:18;3.90;;;2.25;;
82920;SDS011;72696;52.372;9.722;2023-10-31T13:39:44;2.95;;;2.33;;
82920;SDS011;72696;52.372;9.722;2023-10-31T13:42:09;3.65;;;2.65;;
82920;SDS011;72696;52.372;9.722;2023-10-31T13:44:39;4.88;;;2.90;;
82920;SDS011;72696;52.372;9.722;2023-10-31T13:47:07;4.85;;;2.70;;
82920;SDS011;72696;52.372;9.722;2023-10-31T13:49:33;4.63;;;2.38;;
82920;SDS011;72696;52.372;9.722;2023-10-31T13:51:58;3.35;;;2.45;;
82920;SDS011;72696;52.372;9.722;2023-10-31T13:54:24;3.63;;;2.40;;
82920;SDS011;72696;52.372;9.722;2023-10-31T13:56:49;2.65;;;2.25;;
82920;SDS011;72696;52.372;9.722;2023-10-31T13:59:15;5.75;;;2.55;;
82920;SDS011;72696;52.372;9.722;2023-10-31T14:01:40;10.65;;;3.05;;
82920;SDS011;72696;52.372;9.722;2023-10-31T14:04:06;3.53;;;2.80;;
82920;SDS011;72696;52.372;9.722;2023-10-31T14:06:33;4.10;;;2.63;;
82920;SDS011;72696;52.372;9.722;2023-10-31T14:08:59;3.95;;;2.53;;
82920;SDS011;72696;52.372;9.722;2023-10-31T14:11:25;4.05;;;2.90;;
82920;SDS011;72696;52.372;9.722;2023-10-31T14:13:50;4.85;;;3.15;;
82920;SDS011;72696;52.372;9.722;2023-10-31T14:16:17;4.20;;;3.08;;
82920;SDS011;72696;52.372;9.722;2023-10-31T14:18:42;4.70;;;2.95;;
82920;SDS011;72696;52.372;9.722;2023-10-31T14:23:42;4.30;;;2.85;;
82920;SDS011;72696;52.372;9.722;2023-10-31T14:26:08;6.20;;;3.67;;
82920;SDS011;72696;52.372;9.722;2023-10-31T14:28:33;6.57;;;4.10;;
82920;SDS011;72696;52.372;9.722;2023-10-31T14:30:58;7.00;;;3.97;;
82920;SDS011;72696;52.372;9.722;2023-10-31T14:33:24;5.93;;;3.70;;
82920;SDS011;72696;52.372;9.722;2023-10-31T14:35:49;7.82;;;3.92;;
82920;SDS011;72696;52.372;9.722;2023-10-31T14:38:15;5.90;;;3.85;;
82920;SDS011;72696;52.372;9.722;2023-10-31T14:40:40;5.57;;;3.80;;
82920;SDS011;72696;52.372;9.722;2023-10-31T14:43:06;6.82;;;4.35;;
82920;SDS011;72696;52.372;9.722;2023-10-31T14:45:31;5.70;;;3.90;;
82920;SDS011;72696;52.372;9.722;2023-10-31T14:47:56;5.88;;;4.20;;
82920;SDS011;72696;52.372;9.722;2023-10-31T14:50:22;5.63;;;3.60;;
82920;SDS011;72696;52.372;9.722;2023-10-31T14:52:47;5.47;;;3.53;;